createdAt,value
2022-12-01T00:01:21.568Z,85.87
2022-12-01T00:03:49.612Z,87.14
2022-12-01T00:06:19.858Z,86.62
2022-12-01T00:09:03.127Z,85.96
2022-12-01T00:11:31.674Z,86.48
2022-12-01T00:14:01.071Z,86.10
2022-12-01T00:16:29.073Z,86.92
2022-12-01T00:18:57.669Z,85.86
2022-12-01T00:21:27.134Z,85.66
2022-12-01T00:23:59.397Z,86.91
2022-12-01T00:26:29.834Z,87.48
2022-12-01T00:29:01.056Z,87.81
2022-12-01T00:31:30.356Z,87.04
2022-12-01T00:33:58.429Z,87.26
2022-12-01T00:36:26.643Z,85.65
2022-12-01T00:38:55.918Z,86.82
2022-12-01T00:41:25.232Z,86.54
2022-12-01T00:43:53.412Z,85.93
2022-12-01T00:46:22.762Z,84.80
2022-12-01T00:48:50.725Z,83.99
2022-12-01T00:51:21.424Z,84.85
2022-12-01T00:53:49.384Z,85.15
2022-12-01T00:56:17.292Z,85.38
2022-12-01T00:58:45.254Z,84.20
2022-12-01T01:01:13.236Z,84.07
2022-12-01T01:03:42.583Z,84.77
2022-12-01T01:06:12.994Z,84.86
2022-12-01T01:08:41.660Z,84.67
2022-12-01T01:11:10.671Z,85.15
2022-12-01T01:13:39.534Z,84.29
2022-12-01T01:16:12.028Z,85.19
2022-12-01T01:18:40.140Z,84.34
2022-12-01T01:21:14.209Z,85.25
2022-12-01T01:23:42.287Z,84.20
2022-12-01T01:26:15.411Z,83.69
2022-12-01T01:28:43.456Z,84.44
2022-12-01T01:31:13.440Z,84.27
2022-12-01T01:33:41.627Z,85.29
2022-12-01T01:36:11.715Z,85.27
2022-12-01T01:38:39.792Z,85.02
2022-12-01T01:41:08.547Z,85.69
2022-12-01T01:43:42.589Z,85.34
2022-12-01T01:46:12.997Z,85.92
2022-12-01T01:48:43.574Z,84.96
2022-12-01T01:51:14.438Z,85.49
2022-12-01T01:53:44.092Z,85.85
2022-12-01T01:56:12.124Z,84.86
2022-12-01T01:58:41.363Z,85.59
2022-12-01T02:01:09.548Z,85.01
2022-12-01T02:03:39.636Z,84.83
2022-12-01T02:06:09.382Z,85.05
2022-12-01T02:08:39.223Z,84.44
2022-12-01T02:11:30.663Z,85.10
2022-12-01T02:14:10.125Z,84.02
2022-12-01T02:16:45.628Z,84.10
2022-12-01T02:19:41.248Z,83.82
2022-12-01T02:22:23.438Z,84.41
2022-12-01T02:25:15.910Z,84.67
2022-12-01T02:28:07.616Z,85.21
2022-12-01T02:30:43.263Z,84.20
2022-12-01T02:33:19.443Z,84.07
2022-12-01T02:35:53.478Z,83.56
2022-12-01T02:38:29.737Z,84.22
2022-12-01T02:41:02.695Z,84.71
2022-12-01T02:43:34.586Z,84.10
2022-12-01T02:46:11.855Z,83.52
2022-12-01T02:48:43.121Z,85.04
2022-12-01T02:51:16.002Z,85.14
2022-12-01T02:53:44.531Z,85.05
2022-12-01T02:56:15.973Z,84.61
2022-12-01T02:58:44.655Z,85.57
2022-12-01T03:01:39.016Z,85.20
2022-12-01T03:04:21.686Z,85.06
2022-12-01T03:07:00.178Z,85.70
2022-12-01T03:09:39.602Z,85.69
2022-12-01T03:12:19.552Z,85.14
2022-12-01T03:14:55.711Z,85.78
2022-12-01T03:17:29.695Z,84.46
2022-12-01T03:20:01.986Z,85.41
2022-12-01T03:22:35.669Z,85.59
2022-12-01T03:25:05.501Z,85.04
2022-12-01T03:27:41.629Z,85.16
2022-12-01T03:30:13.982Z,84.67
2022-12-01T03:32:49.767Z,84.53
2022-12-01T03:35:23.679Z,85.09
2022-12-01T03:37:56.164Z,85.37
2022-12-01T03:40:29.345Z,85.47
2022-12-01T03:43:00.049Z,85.29
2022-12-01T03:45:35.346Z,85.21
2022-12-01T03:48:04.894Z,84.94
2022-12-01T03:50:40.413Z,84.41
2022-12-01T03:53:19.458Z,83.84
2022-12-01T03:55:54.628Z,83.78
2022-12-01T03:58:27.505Z,83.47
2022-12-01T04:00:57.737Z,84.28
2022-12-01T04:03:27.815Z,83.50
2022-12-01T04:05:55.935Z,84.35
2022-12-01T04:08:24.020Z,83.96
2022-12-01T04:10:52.197Z,84.98
2022-12-01T04:13:23.140Z,85.04
2022-12-01T04:15:51.631Z,84.99
2022-12-01T04:18:20.258Z,84.46
2022-12-01T04:20:50.025Z,85.63
2022-12-01T04:23:32.035Z,85.13
2022-12-01T04:26:01.134Z,85.22
2022-12-01T04:28:29.244Z,86.63
2022-12-01T04:30:57.366Z,85.50
2022-12-01T04:33:25.327Z,84.86
2022-12-01T04:36:01.750Z,84.56
2022-12-01T04:38:31.006Z,83.80
2022-12-01T04:40:59.172Z,83.65
2022-12-01T04:43:27.198Z,85.08
2022-12-01T04:45:55.076Z,84.22
2022-12-01T04:48:22.935Z,83.82
2022-12-01T04:50:51.180Z,83.38
2022-12-01T04:53:20.445Z,83.13
2022-12-01T04:55:48.446Z,82.60
2022-12-01T04:58:16.390Z,82.99
2022-12-01T05:00:44.478Z,82.02
2022-12-01T05:03:15.239Z,82.76
2022-12-01T05:05:43.628Z,82.22
2022-12-01T05:08:11.450Z,81.90
2022-12-01T05:10:40.964Z,82.36
2022-12-01T05:13:08.840Z,82.52
2022-12-01T05:15:36.725Z,82.91
2022-12-01T05:18:06.030Z,82.53
2022-12-01T05:21:05.603Z,80.90
2022-12-01T05:23:35.613Z,82.22
2022-12-01T05:26:07.205Z,82.32
2022-12-01T05:28:35.079Z,81.52
2022-12-01T05:31:03.077Z,81.66
2022-12-01T05:33:31.134Z,82.19
2022-12-01T05:35:58.955Z,81.66
2022-12-01T05:38:26.808Z,81.75
2022-12-01T05:40:56.480Z,82.81
2022-12-01T05:43:29.328Z,82.46
2022-12-01T05:45:58.368Z,83.32
2022-12-01T05:48:26.482Z,82.87
2022-12-01T05:50:54.429Z,82.25
2022-12-01T05:53:22.789Z,82.61
2022-12-01T05:55:54.169Z,82.24
2022-12-01T05:58:22.107Z,82.67
2022-12-01T06:00:51.602Z,82.02
2022-12-01T06:03:19.592Z,82.98
2022-12-01T06:05:47.458Z,82.21
2022-12-01T06:08:15.514Z,82.00
2022-12-01T06:10:43.384Z,83.08
2022-12-01T06:13:11.595Z,82.87
2022-12-01T06:15:39.462Z,83.01
2022-12-01T06:18:08.656Z,82.79
2022-12-01T06:20:36.506Z,82.76
2022-12-01T06:23:05.241Z,82.24
2022-12-01T06:25:33.165Z,83.34
2022-12-01T06:28:01.014Z,81.92
2022-12-01T06:30:29.059Z,82.13
2022-12-01T06:32:56.926Z,81.83
2022-12-01T06:35:26.166Z,81.73
2022-12-01T06:37:55.062Z,80.87
2022-12-01T06:40:23.257Z,81.19
2022-12-01T06:42:51.239Z,80.92
2022-12-01T06:45:19.132Z,80.57
2022-12-01T06:47:48.206Z,80.20
2022-12-01T06:50:16.322Z,81.62
2022-12-01T06:52:45.706Z,81.35
2022-12-01T06:55:13.531Z,82.47
2022-12-01T06:57:43.295Z,81.61
2022-12-01T07:00:13.106Z,82.00
2022-12-01T07:02:41.293Z,82.03
2022-12-01T07:05:09.779Z,81.77
2022-12-01T07:07:38.459Z,81.56
2022-12-01T07:10:10.093Z,80.90
2022-12-01T07:12:38.504Z,81.23
2022-12-01T07:15:08.032Z,81.71
2022-12-01T07:17:36.264Z,82.27
2022-12-01T07:20:05.235Z,81.52
2022-12-01T07:22:33.186Z,81.44
2022-12-01T07:25:01.106Z,80.96
2022-12-01T07:27:33.563Z,80.71
2022-12-01T07:30:01.434Z,80.99
2022-12-01T07:32:29.283Z,81.54
2022-12-01T07:34:57.220Z,81.85
2022-12-01T07:37:25.434Z,81.24
2022-12-01T07:39:53.285Z,80.66
2022-12-01T07:42:21.277Z,81.74
2022-12-01T07:44:53.464Z,81.40
2022-12-01T07:47:21.550Z,80.49
2022-12-01T07:49:49.835Z,81.11
2022-12-01T07:52:17.823Z,81.38
2022-12-01T07:54:45.898Z,80.95
2022-12-01T07:57:14.931Z,80.48
2022-12-01T07:59:42.749Z,80.49
2022-12-01T08:02:12.522Z,80.89
2022-12-01T08:04:40.475Z,81.38
2022-12-01T08:07:08.324Z,80.62
2022-12-01T08:09:36.422Z,79.92
2022-12-01T08:12:04.426Z,79.27
2022-12-01T08:14:32.178Z,79.07
2022-12-01T08:17:00.425Z,79.71
2022-12-01T08:19:29.628Z,79.67
2022-12-01T08:21:57.812Z,79.21
2022-12-01T08:24:25.709Z,79.62
2022-12-01T08:26:53.524Z,78.52
2022-12-01T08:29:21.326Z,79.09
2022-12-01T08:31:49.206Z,78.98
2022-12-01T08:34:17.088Z,78.18
2022-12-01T08:36:46.251Z,77.61
2022-12-01T08:39:14.530Z,78.13
2022-12-01T08:41:42.677Z,78.39
2022-12-01T08:44:11.438Z,78.70
2022-12-01T08:46:39.547Z,77.92
2022-12-01T08:49:08.257Z,78.25
2022-12-01T08:51:36.494Z,78.58
2022-12-01T08:54:06.421Z,77.34
2022-12-01T08:56:36.322Z,77.97
2022-12-01T08:59:05.071Z,77.77
2022-12-01T09:01:33.981Z,75.93
2022-12-01T09:04:09.336Z,77.13
2022-12-01T09:06:42.481Z,76.68
2022-12-01T09:09:14.149Z,76.39
2022-12-01T09:11:43.840Z,76.03
2022-12-01T09:14:12.200Z,74.79
2022-12-01T09:16:40.839Z,74.50
2022-12-01T09:19:09.038Z,75.37
2022-12-01T09:21:38.263Z,75.79
2022-12-01T09:24:08.018Z,75.17
2022-12-01T09:26:37.390Z,75.51
2022-12-01T09:29:07.056Z,76.00
2022-12-01T09:31:35.791Z,75.23
2022-12-01T09:34:06.399Z,75.55
2022-12-01T09:36:36.667Z,75.04
2022-12-01T09:39:05.519Z,75.80
2022-12-01T09:41:36.453Z,75.51
2022-12-01T09:44:15.109Z,75.52
2022-12-01T09:46:48.133Z,76.47
2022-12-01T09:49:22.876Z,76.44
2022-12-01T09:51:51.250Z,74.79
2022-12-01T09:54:19.446Z,75.11
2022-12-01T09:56:53.168Z,75.24
2022-12-01T09:59:27.292Z,75.88
2022-12-01T10:01:59.718Z,76.21
2022-12-01T10:04:36.084Z,74.11
2022-12-01T10:07:06.465Z,75.55
2022-12-01T10:09:41.153Z,76.01
2022-12-01T10:12:15.568Z,76.98
2022-12-01T10:14:46.927Z,75.65
2022-12-01T10:17:26.309Z,76.54
2022-12-01T10:20:02.735Z,77.46
2022-12-01T10:22:51.523Z,76.11
2022-12-01T10:25:24.095Z,76.62
2022-12-01T10:28:23.859Z,76.42
2022-12-01T10:30:54.544Z,75.10
2022-12-01T10:33:25.885Z,74.98
2022-12-01T10:35:54.737Z,75.81
2022-12-01T10:38:28.131Z,75.99
2022-12-01T10:40:59.885Z,75.55
2022-12-01T10:43:46.232Z,75.65
2022-12-01T10:46:23.431Z,74.11
2022-12-01T10:48:56.148Z,73.20
2022-12-01T10:51:24.860Z,71.87
2022-12-01T10:54:00.117Z,72.89
2022-12-01T10:56:28.021Z,72.63
2022-12-01T10:58:58.088Z,73.24
2022-12-01T11:01:31.020Z,72.84
2022-12-01T11:04:03.735Z,72.90
2022-12-01T11:06:32.591Z,73.99
2022-12-01T11:09:02.400Z,73.72
2022-12-01T11:11:34.266Z,73.95
2022-12-01T11:14:04.694Z,73.98
2022-12-01T11:16:41.285Z,74.92
2022-12-01T11:19:21.914Z,75.05
2022-12-01T11:21:56.554Z,76.32
2022-12-01T11:24:40.895Z,75.86
2022-12-01T11:27:17.669Z,77.37
2022-12-01T11:29:47.600Z,77.71
2022-12-01T11:32:24.239Z,77.87
2022-12-01T11:34:56.771Z,78.26
2022-12-01T11:37:29.061Z,78.22
2022-12-01T11:40:05.490Z,76.74
2022-12-01T11:42:34.460Z,76.72
2022-12-01T11:45:09.048Z,77.30
2022-12-01T11:48:02.669Z,77.63
2022-12-01T11:50:32.349Z,77.22
2022-12-01T11:53:00.298Z,76.35
2022-12-01T11:55:30.204Z,77.03
2022-12-01T11:58:02.815Z,77.43
2022-12-01T12:00:37.113Z,77.04
2022-12-01T12:03:22.935Z,77.61
2022-12-01T12:06:38.288Z,75.92
2022-12-01T12:09:05.900Z,75.66
2022-12-01T12:11:43.032Z,75.28
2022-12-01T12:14:37.981Z,75.29
2022-12-01T12:17:28.064Z,75.15
2022-12-01T12:20:34.447Z,74.89
2022-12-01T12:23:18.527Z,75.43
2022-12-01T12:25:56.540Z,75.29
2022-12-01T12:28:39.067Z,77.46
2022-12-01T12:31:18.082Z,76.51
2022-12-01T12:34:08.431Z,77.77
2022-12-01T12:36:44.912Z,76.40
2022-12-01T12:39:29.465Z,77.47
2022-12-01T12:41:58.907Z,77.18
2022-12-01T12:44:48.601Z,78.20
2022-12-01T12:47:47.072Z,77.50
2022-12-01T12:50:26.938Z,77.90
2022-12-01T12:53:00.744Z,77.92
2022-12-01T12:55:34.160Z,76.88
2022-12-01T12:58:11.251Z,77.36
2022-12-01T13:00:45.440Z,79.59
2022-12-01T13:03:21.279Z,79.89
2022-12-01T13:05:54.363Z,80.83
2022-12-01T13:08:29.110Z,81.00
2022-12-01T13:11:03.718Z,80.86
2022-12-01T13:13:38.191Z,81.04
2022-12-01T13:16:11.638Z,81.48
2022-12-01T13:18:46.669Z,81.56
2022-12-01T13:21:17.569Z,81.19
2022-12-01T13:23:48.699Z,82.17
2022-12-01T13:26:19.024Z,81.86
2022-12-01T13:28:51.309Z,83.75
2022-12-01T13:31:20.968Z,83.68
2022-12-01T13:33:57.745Z,81.98
2022-12-01T13:39:20.907Z,83.19
2022-12-01T13:42:00.124Z,82.12
2022-12-01T13:44:31.852Z,81.83
2022-12-01T13:47:04.979Z,82.43
2022-12-01T13:49:39.761Z,81.10
2022-12-01T13:52:31.822Z,83.33
2022-12-01T13:55:27.092Z,82.12
2022-12-01T13:58:24.217Z,81.71
2022-12-01T14:00:52.391Z,81.42
2022-12-01T14:03:41.654Z,79.26
2022-12-01T14:06:26.216Z,80.16
2022-12-01T14:08:59.163Z,80.52
2022-12-01T14:11:31.099Z,80.76
2022-12-01T14:14:01.534Z,80.15
2022-12-01T14:16:48.240Z,78.72
2022-12-01T14:19:31.381Z,78.53
2022-12-01T14:22:00.364Z,78.48
2022-12-01T14:24:36.831Z,78.55
2022-12-01T14:27:07.868Z,78.35
2022-12-01T14:29:38.481Z,78.70
2022-12-01T14:32:22.735Z,77.60
2022-12-01T14:34:57.082Z,78.62
2022-12-01T14:37:34.224Z,78.70
2022-12-01T14:40:07.683Z,76.57
2022-12-01T14:42:56.538Z,77.70
2022-12-01T14:45:30.136Z,78.37
2022-12-01T14:48:02.684Z,77.58
2022-12-01T14:50:40.860Z,77.55
2022-12-01T14:53:22.967Z,78.11
2022-12-01T14:55:56.462Z,78.22
2022-12-01T14:58:29.427Z,76.53
2022-12-01T15:01:07.471Z,76.98
2022-12-01T15:03:41.846Z,77.64
2022-12-01T15:06:10.432Z,77.88
2022-12-01T15:08:43.449Z,77.90
2022-12-01T15:11:22.488Z,77.17
2022-12-01T15:13:53.919Z,78.38
2022-12-01T15:16:25.187Z,78.59
2022-12-01T15:18:54.001Z,77.54
2022-12-01T15:21:24.812Z,77.35
2022-12-01T15:23:58.324Z,77.96
2022-12-01T15:26:29.772Z,78.32
2022-12-01T15:29:16.702Z,77.68
2022-12-01T15:31:48.414Z,77.37
2022-12-01T15:34:19.292Z,78.37
2022-12-01T15:36:48.593Z,78.49
2022-12-01T15:39:19.498Z,77.34
2022-12-01T15:41:54.113Z,77.90
2022-12-01T15:44:28.609Z,76.74
2022-12-01T15:46:56.862Z,77.73
2022-12-01T15:49:32.606Z,77.73
2022-12-01T15:52:09.046Z,77.63
2022-12-01T15:54:38.422Z,78.10
2022-12-01T15:57:07.056Z,78.20
2022-12-01T15:59:41.458Z,78.63
2022-12-01T16:02:25.169Z,78.76
2022-12-01T16:05:02.402Z,79.02
2022-12-01T16:08:11.010Z,79.82
2022-12-01T16:10:29.345Z,80.52
2022-12-01T16:13:30.602Z,79.65
2022-12-01T16:15:59.903Z,79.86
2022-12-01T16:18:32.471Z,80.24
2022-12-01T16:21:04.203Z,80.60
2022-12-01T16:23:33.880Z,81.32
2022-12-01T16:26:02.309Z,82.28
2022-12-01T16:28:36.059Z,81.79
2022-12-01T16:31:10.155Z,81.82
2022-12-01T16:33:40.590Z,82.27
2022-12-01T16:36:09.052Z,82.36
2022-12-01T16:38:36.948Z,82.32
2022-12-01T16:41:17.123Z,82.46
2022-12-01T16:43:59.421Z,83.47
2022-12-01T16:46:35.434Z,84.67
2022-12-01T16:49:03.352Z,83.81
2022-12-01T16:51:54.383Z,84.38
2022-12-01T16:54:19.096Z,83.69
2022-12-01T16:56:47.305Z,84.03
2022-12-01T16:59:15.263Z,85.16
2022-12-01T17:01:44.669Z,84.07
2022-12-01T17:04:12.816Z,83.36
2022-12-01T17:06:40.684Z,83.36
2022-12-01T17:09:08.613Z,83.29
2022-12-01T17:11:36.866Z,83.40
2022-12-01T17:14:04.742Z,83.23
2022-12-01T17:16:32.730Z,82.98
2022-12-01T17:19:03.012Z,82.40
2022-12-01T17:21:31.208Z,81.94
2022-12-01T17:23:59.360Z,81.60
2022-12-01T17:26:27.204Z,82.02
2022-12-01T17:28:56.093Z,81.79
2022-12-01T17:31:24.332Z,81.61
2022-12-01T17:33:52.473Z,81.73
2022-12-01T17:36:22.873Z,81.14
2022-12-01T17:38:51.142Z,80.84
2022-12-01T17:41:21.903Z,80.51
2022-12-01T17:43:49.963Z,79.72
2022-12-01T17:46:18.196Z,80.25
2022-12-01T17:48:48.084Z,80.90
2022-12-01T17:51:16.892Z,80.91
2022-12-01T17:53:46.258Z,80.85
2022-12-01T17:56:16.384Z,80.01
2022-12-01T17:58:44.967Z,79.14
2022-12-01T18:01:15.994Z,78.97
2022-12-01T18:03:44.679Z,78.29
2022-12-01T18:06:13.295Z,77.48
2022-12-01T18:08:42.336Z,77.90
2022-12-01T18:11:14.031Z,78.15
2022-12-01T18:13:43.860Z,78.02
2022-12-01T18:16:14.204Z,78.50
2022-12-01T18:18:42.741Z,79.64
2022-12-01T18:21:13.235Z,79.01
2022-12-01T18:23:41.916Z,78.80
2022-12-01T18:26:15.953Z,77.80
2022-12-01T18:28:44.558Z,77.82
2022-12-01T18:31:15.589Z,78.31
2022-12-01T18:33:45.668Z,77.47
2022-12-01T18:36:15.537Z,78.13
2022-12-01T18:38:43.629Z,78.67
2022-12-01T18:41:12.913Z,79.50
2022-12-01T18:43:41.373Z,79.45
2022-12-01T18:46:10.027Z,78.53
2022-12-01T18:48:37.958Z,77.86
2022-12-01T18:51:08.041Z,77.65
2022-12-01T18:53:37.447Z,77.09
2022-12-01T18:56:07.424Z,76.78
2022-12-01T18:58:37.680Z,76.39
2022-12-01T19:01:17.935Z,75.99
2022-12-01T19:03:46.138Z,76.62
2022-12-01T19:06:14.089Z,75.78
2022-12-01T19:08:42.633Z,76.45
2022-12-01T19:11:10.714Z,76.24
2022-12-01T19:13:40.409Z,75.76
2022-12-01T19:16:09.535Z,77.39
2022-12-01T19:18:37.858Z,77.14
2022-12-01T19:21:07.354Z,76.58
2022-12-01T19:23:35.537Z,76.87
2022-12-01T19:26:06.016Z,75.93
2022-12-01T19:28:34.250Z,74.91
2022-12-01T19:31:07.227Z,75.08
2022-12-01T19:33:36.701Z,74.95
2022-12-01T19:36:07.024Z,75.89
2022-12-01T19:38:36.186Z,76.90
2022-12-01T19:41:05.097Z,78.07
2022-12-01T19:43:34.364Z,77.31
2022-12-01T19:46:07.512Z,78.01
2022-12-01T19:48:35.444Z,77.12
2022-12-01T19:51:03.852Z,76.73
2022-12-01T19:53:34.091Z,77.20
2022-12-01T19:56:03.477Z,78.36
2022-12-01T19:58:36.697Z,77.71
2022-12-01T20:01:09.296Z,77.76
2022-12-01T20:03:37.903Z,77.93
2022-12-01T20:06:15.989Z,76.66
2022-12-01T20:08:47.395Z,76.91
2022-12-01T20:11:16.288Z,77.42
2022-12-01T20:13:45.586Z,77.83
2022-12-01T20:16:16.878Z,77.16
2022-12-01T20:18:45.755Z,77.16
2022-12-01T20:21:18.195Z,77.83
2022-12-01T20:23:53.247Z,77.37
2022-12-01T20:26:26.186Z,78.65
2022-12-01T20:29:01.476Z,77.64
2022-12-01T20:31:32.745Z,78.50
2022-12-01T20:34:03.695Z,78.43
2022-12-01T20:36:32.671Z,79.14
2022-12-01T20:39:00.553Z,78.46
2022-12-01T20:41:28.884Z,78.62
2022-12-01T20:43:58.507Z,79.43
2022-12-01T20:46:30.558Z,78.31
2022-12-01T20:48:58.753Z,78.44
2022-12-01T20:51:26.973Z,77.82
2022-12-01T20:54:26.180Z,78.94
2022-12-01T20:56:43.376Z,80.03
2022-12-01T20:59:12.902Z,80.39
2022-12-01T21:01:42.490Z,79.90
2022-12-01T21:04:10.634Z,78.76
2022-12-01T21:06:38.505Z,79.65
2022-12-01T21:09:07.507Z,78.76
2022-12-01T21:12:00.742Z,79.19
2022-12-01T21:14:32.864Z,78.73
2022-12-01T21:17:10.363Z,78.84
2022-12-01T21:19:45.234Z,78.55
2022-12-01T21:22:13.975Z,78.43
2022-12-01T21:24:44.036Z,78.04
2022-12-01T21:27:15.275Z,78.20
2022-12-01T21:29:46.467Z,78.58
2022-12-01T21:32:18.243Z,78.23
2022-12-01T21:34:48.169Z,77.81
2022-12-01T21:37:22.760Z,77.82
2022-12-01T21:39:51.793Z,77.77
2022-12-01T21:42:21.894Z,79.41
2022-12-01T21:44:50.744Z,78.83
2022-12-01T21:47:24.474Z,79.28
2022-12-01T21:49:54.266Z,79.72
2022-12-01T21:52:25.204Z,80.46
2022-12-01T21:54:53.351Z,79.05
2022-12-01T21:57:31.161Z,80.40
2022-12-01T22:00:07.041Z,80.72
2022-12-01T22:02:49.592Z,80.19
2022-12-01T22:05:31.127Z,79.32
2022-12-01T22:08:09.069Z,79.29
2022-12-01T22:10:58.368Z,77.39
2022-12-01T22:13:33.560Z,77.14
2022-12-01T22:16:01.734Z,77.51
2022-12-01T22:18:38.153Z,76.42
2022-12-01T22:21:32.887Z,76.71
2022-12-01T22:24:21.706Z,76.76
2022-12-01T22:26:52.052Z,76.07
2022-12-01T22:29:29.418Z,76.71
2022-12-01T22:32:28.339Z,76.52
2022-12-01T22:35:01.440Z,76.80
2022-12-01T22:37:37.499Z,77.04
2022-12-01T22:40:30.840Z,75.99
2022-12-01T22:43:01.052Z,77.13
2022-12-01T22:45:29.024Z,77.36
2022-12-01T22:48:01.940Z,77.96
2022-12-01T22:50:33.415Z,78.39
2022-12-01T22:53:11.500Z,78.22
2022-12-01T22:55:40.802Z,78.36
2022-12-01T22:58:21.079Z,78.07
2022-12-01T23:00:49.636Z,78.21
2022-12-01T23:03:20.484Z,77.91
2022-12-01T23:05:55.326Z,77.97
2022-12-01T23:08:25.046Z,78.66
2022-12-01T23:10:53.101Z,77.63
2022-12-01T23:13:23.113Z,78.22
2022-12-01T23:15:54.797Z,77.41
2022-12-01T23:18:24.791Z,77.80
2022-12-01T23:20:55.550Z,77.35
2022-12-01T23:23:29.930Z,77.92
2022-12-01T23:25:59.375Z,77.43
2022-12-01T23:28:27.308Z,76.56
2022-12-01T23:30:58.453Z,76.70
2022-12-01T23:33:29.101Z,77.43
2022-12-01T23:36:02.895Z,78.05
2022-12-01T23:38:35.889Z,77.68
2022-12-01T23:41:07.493Z,76.32
2022-12-01T23:43:40.055Z,77.19
2022-12-01T23:46:11.730Z,77.42
2022-12-01T23:48:44.795Z,76.95
2022-12-01T23:51:19.936Z,76.37
2022-12-01T23:53:48.099Z,76.68
2022-12-01T23:56:20.091Z,76.78
2022-12-01T23:58:48.363Z,76.50
